createdAt,value
2018-01-22T00:00:46.572Z,1.90
2018-01-22T00:02:49.933Z,2.17
2018-01-22T00:04:53.388Z,2.33
2018-01-22T00:06:57.738Z,1.80
2018-01-22T00:09:01.129Z,1.90
2018-01-22T00:11:04.696Z,2.00
2018-01-22T00:13:08.826Z,1.73
2018-01-22T00:15:12.409Z,1.77
2018-01-22T00:17:15.808Z,1.63
2018-01-22T00:19:19.430Z,1.50
2018-01-22T00:21:22.786Z,2.23
2018-01-22T00:23:26.920Z,1.83
2018-01-22T00:25:30.429Z,1.63
2018-01-22T00:27:33.805Z,1.70
2018-01-22T00:29:37.448Z,1.60
2018-01-22T00:31:40.820Z,1.47
2018-01-22T00:33:44.187Z,1.70
2018-01-22T00:35:47.751Z,1.93
2018-01-22T00:37:51.914Z,1.53
2018-01-22T00:39:55.279Z,1.87
2018-01-22T00:41:58.652Z,2.03
2018-01-22T00:44:02.776Z,1.93
2018-01-22T00:46:05.959Z,1.93
2018-01-22T00:48:09.146Z,1.80
2018-01-22T00:50:13.278Z,1.60
2018-01-22T00:52:16.649Z,1.70
2018-01-22T00:54:20.768Z,1.70
2018-01-22T00:56:24.178Z,1.63
2018-01-22T00:58:27.673Z,1.80
2018-01-22T01:00:31.088Z,1.80
2018-01-22T01:02:34.457Z,1.60
2018-01-22T01:04:37.897Z,1.80
2018-01-22T01:06:41.330Z,1.90
2018-01-22T01:08:44.691Z,1.67
2018-01-22T01:10:48.821Z,1.57
2018-01-22T01:12:52.268Z,1.90
2018-01-22T01:14:55.935Z,1.70
2018-01-22T01:16:59.313Z,1.60
2018-01-22T01:19:02.671Z,1.50
2018-01-22T01:21:06.034Z,1.60
2018-01-22T01:23:09.441Z,1.80
2018-01-22T01:25:12.870Z,1.60
2018-01-22T01:27:17.041Z,1.70
2018-01-22T01:29:20.391Z,1.37
2018-01-22T01:31:23.758Z,1.60
2018-01-22T01:33:27.915Z,1.60
2018-01-22T01:35:31.284Z,1.40
2018-01-22T01:37:34.662Z,1.60
2018-01-22T01:39:38.784Z,1.70
2018-01-22T01:41:42.141Z,1.50
2018-01-22T01:43:46.320Z,1.20
2018-01-22T01:45:49.684Z,1.37
2018-01-22T01:47:53.061Z,1.43
2018-01-22T01:49:56.418Z,1.50
2018-01-22T01:51:59.791Z,1.60
2018-01-22T01:54:03.222Z,1.80
2018-01-22T01:56:07.354Z,1.40
2018-01-22T01:58:11.685Z,1.53
2018-01-22T02:00:15.111Z,1.70
2018-01-22T02:02:18.474Z,1.50
2018-01-22T02:04:21.873Z,1.50
2018-01-22T02:06:25.221Z,1.60
2018-01-22T02:08:29.351Z,1.33
2018-01-22T02:10:32.749Z,1.50
2018-01-22T02:12:36.116Z,1.40
2018-01-22T02:14:40.269Z,1.50
2018-01-22T02:16:43.635Z,1.30
2018-01-22T02:18:47.001Z,1.43
2018-01-22T02:20:51.166Z,1.40
2018-01-22T02:22:54.538Z,1.33
2018-01-22T02:24:57.921Z,1.33
2018-01-22T02:27:01.289Z,1.53
2018-01-22T02:29:05.445Z,1.47
2018-01-22T02:31:08.842Z,1.30
2018-01-22T02:33:12.214Z,1.67
2018-01-22T02:35:15.623Z,1.50
2018-01-22T02:37:18.989Z,1.70
2018-01-22T02:39:22.358Z,1.40
2018-01-22T02:41:25.747Z,1.43
2018-01-22T02:43:29.874Z,1.60
2018-01-22T02:45:33.252Z,1.40
2018-01-22T02:47:37.384Z,1.50
2018-01-22T02:49:40.746Z,1.40
2018-01-22T02:51:44.917Z,1.60
2018-01-22T02:53:48.295Z,1.67
2018-01-22T02:55:51.661Z,1.07
2018-01-22T02:57:55.054Z,1.27
2018-01-22T02:59:58.409Z,1.13
2018-01-22T03:02:01.901Z,1.30
2018-01-22T03:04:05.321Z,1.50
2018-01-22T03:06:08.581Z,1.50
2018-01-22T03:08:11.950Z,1.70
2018-01-22T03:10:15.315Z,1.30
2018-01-22T03:12:18.706Z,1.47
2018-01-22T03:14:22.085Z,1.30
2018-01-22T03:16:26.208Z,1.20
2018-01-22T03:18:29.575Z,1.37
2018-01-22T03:20:33.717Z,1.60
2018-01-22T03:22:37.107Z,1.30
2018-01-22T03:24:40.481Z,1.20
2018-01-22T03:26:43.849Z,1.50
2018-01-22T03:28:47.214Z,1.20
2018-01-22T03:30:50.612Z,1.27
2018-01-22T03:32:54.007Z,1.40
2018-01-22T03:34:57.372Z,1.30
2018-01-22T03:37:00.735Z,1.60
2018-01-22T03:39:04.218Z,1.37
2018-01-22T03:41:08.329Z,1.20
2018-01-22T03:43:12.477Z,1.20
2018-01-22T03:45:15.832Z,1.30
2018-01-22T03:47:19.969Z,1.43
2018-01-22T03:49:23.330Z,1.47
2018-01-22T03:51:27.460Z,1.43
2018-01-22T03:53:30.852Z,1.30
2018-01-22T03:55:34.214Z,1.43
2018-01-22T03:57:37.577Z,1.10
2018-01-22T03:59:41.735Z,1.17
2018-01-22T04:01:45.117Z,1.50
2018-01-22T04:03:49.280Z,1.37
2018-01-22T04:05:52.639Z,1.40
2018-01-22T04:07:56.014Z,1.33
2018-01-22T04:10:00.178Z,1.50
2018-01-22T04:12:03.535Z,1.40
2018-01-22T04:14:06.933Z,1.30
2018-01-22T04:16:10.302Z,1.20
2018-01-22T04:18:14.447Z,1.30
2018-01-22T04:20:17.856Z,1.00
2018-01-22T04:22:21.227Z,1.23
2018-01-22T04:24:24.635Z,1.23
2018-01-22T04:26:27.987Z,1.17
2018-01-22T04:28:32.125Z,1.50
2018-01-22T04:30:35.513Z,1.23
2018-01-22T04:32:38.886Z,1.30
2018-01-22T04:34:43.044Z,1.20
2018-01-22T04:36:46.420Z,1.23
2018-01-22T04:38:49.788Z,1.20
2018-01-22T04:40:53.173Z,1.20
2018-01-22T04:42:56.309Z,1.27
2018-01-22T04:44:59.710Z,1.37
2018-01-22T04:47:03.083Z,1.50
2018-01-22T04:49:06.448Z,1.20
2018-01-22T04:51:09.834Z,1.40
2018-01-22T04:53:13.203Z,1.40
2018-01-22T04:55:17.353Z,1.50
2018-01-22T04:57:20.729Z,1.40
2018-01-22T04:59:24.118Z,1.30
2018-01-22T05:01:27.505Z,1.33
2018-01-22T05:03:31.630Z,1.40
2018-01-22T05:05:34.993Z,1.50
2018-01-22T05:07:39.118Z,1.20
2018-01-22T05:09:43.226Z,1.20
2018-01-22T05:11:47.378Z,1.40
2018-01-22T05:13:50.936Z,1.23
2018-01-22T05:15:54.336Z,1.30
2018-01-22T05:17:57.737Z,1.37
2018-01-22T05:20:01.102Z,1.47
2018-01-22T05:22:05.000Z,1.20
2018-01-22T05:24:09.119Z,1.47
2018-01-22T05:26:13.273Z,1.30
2018-01-22T05:28:17.400Z,1.20
2018-01-22T05:30:20.755Z,1.43
2018-01-22T05:32:24.410Z,1.50
2018-01-22T05:34:27.779Z,1.30
2018-01-22T05:36:31.218Z,1.50
2018-01-22T05:38:34.590Z,1.43
2018-01-22T05:40:38.028Z,1.23
2018-01-22T05:42:41.387Z,1.10
2018-01-22T05:44:45.508Z,1.33
2018-01-22T05:46:48.927Z,1.40
2018-01-22T05:48:52.347Z,1.50
2018-01-22T05:50:55.798Z,1.20
2018-01-22T05:52:59.158Z,1.50
2018-01-22T05:55:02.509Z,1.00
2018-01-22T05:57:05.720Z,1.30
2018-01-22T05:59:08.913Z,1.23
2018-01-22T06:01:12.324Z,1.43
2018-01-22T06:03:16.463Z,1.30
2018-01-22T06:05:20.829Z,1.20
2018-01-22T06:07:24.247Z,2.37
2018-01-22T06:09:28.383Z,2.10
2018-01-22T06:11:31.772Z,1.87
2018-01-22T06:13:35.141Z,2.03
2018-01-22T06:15:39.250Z,1.53
2018-01-22T06:17:43.209Z,2.00
2018-01-22T06:19:46.582Z,1.80
2018-01-22T06:21:49.789Z,1.53
2018-01-22T06:23:53.163Z,2.10
2018-01-22T06:25:56.385Z,1.73
2018-01-22T06:27:59.793Z,1.50
2018-01-22T06:30:04.100Z,1.93
2018-01-22T06:32:07.526Z,1.63
2018-01-22T06:34:11.073Z,1.70
2018-01-22T06:36:14.451Z,1.60
2018-01-22T06:38:18.009Z,1.77
2018-01-22T06:40:22.146Z,1.40
2018-01-22T06:42:25.502Z,1.77
2018-01-22T06:44:29.641Z,1.83
2018-01-22T06:46:33.027Z,1.30
2018-01-22T06:48:37.339Z,1.63
2018-01-22T06:50:40.701Z,1.70
2018-01-22T06:52:44.867Z,1.80
2018-01-22T06:54:48.435Z,1.53
2018-01-22T06:56:51.783Z,1.40
2018-01-22T06:58:55.160Z,1.80
2018-01-22T07:00:58.510Z,1.90
2018-01-22T07:03:01.898Z,1.90
2018-01-22T07:05:05.252Z,1.40
2018-01-22T07:07:08.606Z,1.77
2018-01-22T07:09:12.016Z,1.90
2018-01-22T07:11:15.550Z,2.00
2018-01-22T07:13:19.737Z,2.33
2018-01-22T07:15:23.148Z,1.60
2018-01-22T07:17:27.264Z,1.90
2018-01-22T07:19:31.413Z,2.07
2018-01-22T07:21:34.776Z,1.97
2018-01-22T07:23:39.080Z,2.10
2018-01-22T07:25:43.227Z,2.07
2018-01-22T07:27:46.582Z,2.10
2018-01-22T07:29:49.973Z,1.90
2018-01-22T07:31:54.090Z,2.20
2018-01-22T07:33:57.515Z,2.30
2018-01-22T07:36:00.871Z,2.07
2018-01-22T07:38:05.709Z,1.93
2018-01-22T07:40:09.851Z,2.23
2018-01-22T07:42:13.307Z,2.20
2018-01-22T07:44:16.686Z,1.77
2018-01-22T07:46:21.303Z,2.27
2018-01-22T07:48:25.469Z,2.17
2018-01-22T07:50:30.574Z,2.20
2018-01-22T07:52:33.941Z,1.90
2018-01-22T07:54:38.115Z,2.40
2018-01-22T07:56:41.512Z,2.67
2018-01-22T07:58:44.897Z,2.17
2018-01-22T08:00:48.327Z,1.70
2018-01-22T08:02:52.705Z,2.13
2018-01-22T08:04:56.152Z,2.23
2018-01-22T08:07:00.325Z,2.53
2018-01-22T08:09:03.478Z,2.20
2018-01-22T08:11:06.862Z,2.00
2018-01-22T08:13:10.229Z,2.03
2018-01-22T08:15:14.354Z,2.57
2018-01-22T08:17:17.788Z,1.70
2018-01-22T08:19:21.162Z,2.30
2018-01-22T08:21:24.574Z,2.40
2018-01-22T08:23:27.943Z,2.10
2018-01-22T08:25:31.296Z,2.13
2018-01-22T08:27:35.439Z,2.40
2018-01-22T08:29:38.606Z,1.97
2018-01-22T08:31:42.548Z,2.20
2018-01-22T08:33:45.905Z,2.00
2018-01-22T08:35:49.258Z,2.40
2018-01-22T08:37:53.429Z,2.27
2018-01-22T08:39:56.787Z,1.77
2018-01-22T08:42:00.955Z,1.73
2018-01-22T08:44:04.356Z,2.50
2018-01-22T08:46:08.467Z,2.10
2018-01-22T08:48:11.853Z,2.07
2018-01-22T08:50:15.230Z,2.10
2018-01-22T08:52:18.446Z,1.80
2018-01-22T08:54:21.821Z,1.77
2018-01-22T08:56:25.180Z,1.70
2018-01-22T08:58:28.587Z,2.33
2018-01-22T09:00:31.945Z,2.10
2018-01-22T09:02:35.334Z,2.00
2018-01-22T09:04:39.460Z,2.20
2018-01-22T09:06:42.818Z,2.07
2018-01-22T09:08:46.221Z,2.20
2018-01-22T09:10:50.342Z,2.40
2018-01-22T09:12:54.507Z,2.10
2018-01-22T09:14:57.891Z,2.10
2018-01-22T09:17:01.261Z,1.80
2018-01-22T09:19:04.701Z,2.13
2018-01-22T09:21:08.060Z,2.03
2018-01-22T09:23:11.407Z,1.90
2018-01-22T09:25:15.536Z,1.90
2018-01-22T09:27:18.897Z,2.10
2018-01-22T09:29:22.306Z,2.30
2018-01-22T09:31:26.435Z,2.37
2018-01-22T09:33:29.802Z,2.10
2018-01-22T09:35:33.930Z,1.83
2018-01-22T09:37:37.122Z,2.17
2018-01-22T09:39:40.516Z,2.20
2018-01-22T09:41:43.889Z,1.70
2018-01-22T09:43:48.022Z,2.03
2018-01-22T09:45:51.470Z,2.20
2018-01-22T09:47:54.836Z,2.20
2018-01-22T09:49:59.068Z,2.37
2018-01-22T09:52:02.521Z,2.23
2018-01-22T09:54:05.886Z,2.20
2018-01-22T09:56:09.300Z,1.70
2018-01-22T09:58:12.690Z,1.83
2018-01-22T10:00:16.146Z,2.20
2018-01-22T10:02:20.282Z,2.07
2018-01-22T10:04:23.664Z,2.30
2018-01-22T10:06:27.668Z,1.97
2018-01-22T10:08:31.809Z,2.20
2018-01-22T10:10:35.177Z,1.90
2018-01-22T10:12:38.598Z,1.97
2018-01-22T10:14:41.958Z,2.20
2018-01-22T10:16:46.119Z,2.10
2018-01-22T10:18:49.529Z,2.10
2018-01-22T10:20:52.895Z,2.27
2018-01-22T10:22:57.008Z,1.80
2018-01-22T10:25:01.221Z,2.03
2018-01-22T10:27:04.612Z,2.20
2018-01-22T10:29:07.972Z,2.23
2018-01-22T10:31:11.356Z,2.30
2018-01-22T10:33:14.728Z,1.90
2018-01-22T10:35:18.871Z,2.30
2018-01-22T10:37:22.288Z,2.23
2018-01-22T10:39:25.830Z,1.97
2018-01-22T10:41:30.005Z,1.83
2018-01-22T10:43:34.149Z,2.43
2018-01-22T10:45:38.281Z,2.40
2018-01-22T10:47:41.717Z,2.63
2018-01-22T10:49:45.082Z,1.97
2018-01-22T10:51:48.499Z,2.37
2018-01-22T10:53:51.968Z,2.03
2018-01-22T10:55:55.338Z,2.33
2018-01-22T10:57:58.781Z,2.07
2018-01-22T11:00:02.192Z,2.17
2018-01-22T11:02:05.554Z,2.30
2018-01-22T11:04:08.924Z,2.03
2018-01-22T11:06:12.326Z,2.13
2018-01-22T11:08:15.722Z,1.73
2018-01-22T11:10:19.115Z,2.60
2018-01-22T11:12:22.480Z,2.57
2018-01-22T11:14:25.875Z,2.10
2018-01-22T11:16:29.240Z,2.20
2018-01-22T11:18:32.618Z,2.10
2018-01-22T11:20:35.984Z,2.10
2018-01-22T11:22:40.099Z,2.00
2018-01-22T11:24:43.478Z,2.30
2018-01-22T11:26:46.820Z,2.27
2018-01-22T11:28:51.000Z,2.10
2018-01-22T11:30:54.358Z,2.07
2018-01-22T11:32:57.756Z,2.10
2018-01-22T11:35:01.112Z,1.97
2018-01-22T11:37:05.236Z,2.23
2018-01-22T11:39:08.616Z,1.70
2018-01-22T11:41:12.940Z,2.40
2018-01-22T11:43:16.322Z,2.00
2018-01-22T11:45:19.673Z,1.87
2018-01-22T11:47:23.064Z,2.07
2018-01-22T11:49:26.453Z,2.03
2018-01-22T11:51:29.813Z,2.47
2018-01-22T11:53:33.178Z,2.30
2018-01-22T11:55:37.300Z,2.07
2018-01-22T11:57:41.415Z,2.20
2018-01-22T11:59:44.789Z,2.00
2018-01-22T12:01:48.909Z,1.97
2018-01-22T12:03:52.305Z,2.50
2018-01-22T12:05:55.661Z,1.80
2018-01-22T12:07:59.053Z,2.10
2018-01-22T12:10:02.467Z,1.90
2018-01-22T12:12:06.438Z,2.00
2018-01-22T12:14:09.894Z,2.03
2018-01-22T12:16:13.361Z,2.00
2018-01-22T12:18:17.496Z,2.30
2018-01-22T12:20:20.944Z,2.27
2018-01-22T12:22:24.329Z,2.00
2018-01-22T12:24:27.696Z,2.03
2018-01-22T12:26:31.076Z,1.83
2018-01-22T12:28:34.626Z,1.77
2018-01-22T12:30:38.019Z,1.70
2018-01-22T12:32:42.172Z,2.00
2018-01-22T12:34:45.558Z,2.17
2018-01-22T12:36:48.942Z,2.00
2018-01-22T12:38:52.301Z,1.97
2018-01-22T12:40:56.518Z,1.80
2018-01-22T12:42:59.891Z,2.00
2018-01-22T12:45:03.239Z,1.90
2018-01-22T12:47:06.618Z,1.77
2018-01-22T12:49:09.997Z,1.90
2018-01-22T12:51:14.173Z,2.23
2018-01-22T12:53:17.589Z,2.07
2018-01-22T12:55:21.008Z,2.00
2018-01-22T12:57:24.403Z,2.07
2018-01-22T12:59:28.535Z,2.17
2018-01-22T13:01:31.983Z,1.60
2018-01-22T13:03:36.120Z,1.70
2018-01-22T13:05:39.494Z,1.77
2018-01-22T13:07:43.654Z,2.00
2018-01-22T13:09:47.043Z,1.73
2018-01-22T13:11:50.440Z,1.60
2018-01-22T13:13:53.827Z,2.10
2018-01-22T13:15:57.197Z,1.80
2018-01-22T13:18:00.729Z,1.90
2018-01-22T13:20:04.116Z,2.20
2018-01-22T13:22:07.560Z,1.90
2018-01-22T13:24:10.944Z,1.70
2018-01-22T13:26:15.091Z,2.00
2018-01-22T13:28:18.490Z,2.10
2018-01-22T13:30:21.853Z,2.23
2018-01-22T13:32:25.206Z,2.33
2018-01-22T13:34:28.567Z,2.00
2018-01-22T13:36:31.936Z,2.53
2018-01-22T13:38:35.343Z,2.10
2018-01-22T13:40:44.157Z,2.03
2018-01-22T13:42:47.523Z,2.40
2018-01-22T13:44:51.710Z,2.27
2018-01-22T13:46:55.858Z,2.30
2018-01-22T13:48:59.109Z,2.23
2018-01-22T13:51:02.539Z,2.30
2018-01-22T13:53:05.921Z,2.17
2018-01-22T13:55:09.322Z,2.30
2018-01-22T13:57:12.700Z,2.50
2018-01-22T13:59:16.123Z,2.50
2018-01-22T14:01:19.481Z,2.10
2018-01-22T14:03:23.614Z,2.53
2018-01-22T14:05:27.325Z,2.30
2018-01-22T14:07:30.729Z,2.10
2018-01-22T14:09:34.146Z,2.40
2018-01-22T14:11:37.538Z,2.30
2018-01-22T14:13:40.944Z,2.20
2018-01-22T14:15:44.954Z,2.17
2018-01-22T14:17:48.529Z,2.00
2018-01-22T14:19:51.946Z,2.17
2018-01-22T14:21:55.810Z,2.30
2018-01-22T14:23:59.290Z,2.10
2018-01-22T14:26:02.783Z,2.80
2018-01-22T14:28:06.178Z,2.73
2018-01-22T14:30:09.577Z,2.07
2018-01-22T14:32:12.956Z,2.20
2018-01-22T14:34:16.316Z,2.23
2018-01-22T14:36:19.746Z,2.30
2018-01-22T14:38:23.104Z,2.83
2018-01-22T14:40:27.264Z,2.10
2018-01-22T14:42:30.641Z,2.10
2018-01-22T14:44:34.048Z,2.13
2018-01-22T14:46:37.514Z,2.80
2018-01-22T14:48:40.879Z,2.30
2018-01-22T14:50:44.328Z,2.67
2018-01-22T14:52:47.767Z,2.20
2018-01-22T14:54:51.133Z,2.90
2018-01-22T14:56:54.553Z,2.00
2018-01-22T14:58:58.744Z,2.10
2018-01-22T15:01:02.164Z,2.13
2018-01-22T15:03:05.538Z,2.30
2018-01-22T15:05:08.922Z,2.33
2018-01-22T15:07:12.388Z,2.50
2018-01-22T15:09:15.793Z,2.63
2018-01-22T15:11:19.175Z,2.40
2018-01-22T15:13:23.334Z,2.83
2018-01-22T15:15:27.165Z,2.70
2018-01-22T15:17:30.582Z,2.30
2018-01-22T15:19:33.955Z,2.60
2018-01-22T15:21:37.370Z,2.50
2018-01-22T15:23:40.731Z,2.67
2018-01-22T15:25:44.256Z,2.57
2018-01-22T15:27:47.782Z,2.40
2018-01-22T15:29:51.366Z,2.50
2018-01-22T15:31:54.962Z,2.60
2018-01-22T15:33:58.686Z,2.70
2018-01-22T15:36:02.097Z,2.83
2018-01-22T15:38:05.455Z,2.53
2018-01-22T15:40:09.009Z,2.40
2018-01-22T15:42:12.419Z,2.80
2018-01-22T15:44:15.778Z,2.50
2018-01-22T15:46:19.159Z,2.50
2018-01-22T15:48:22.524Z,2.13
2018-01-22T15:50:25.901Z,2.47
2018-01-22T15:52:29.563Z,2.93
2018-01-22T15:54:33.051Z,2.50
2018-01-22T15:56:36.447Z,2.93
2018-01-22T15:58:39.681Z,2.50
2018-01-22T16:00:43.073Z,2.50
2018-01-22T16:02:46.536Z,2.50
2018-01-22T16:04:50.001Z,2.70
2018-01-22T16:06:53.385Z,2.40
2018-01-22T16:08:57.598Z,2.63
2018-01-22T16:11:01.751Z,2.60
2018-01-22T16:13:05.586Z,2.57
2018-01-22T16:15:09.631Z,2.63
2018-01-22T16:17:13.034Z,2.90
2018-01-22T16:19:16.388Z,2.90
2018-01-22T16:21:20.550Z,3.00
2018-01-22T16:23:24.031Z,2.63
2018-01-22T16:25:27.404Z,3.10
2018-01-22T16:27:30.780Z,3.10
2018-01-22T16:29:34.949Z,3.17
2018-01-22T16:31:38.327Z,2.83
2018-01-22T16:33:41.999Z,2.93
2018-01-22T16:35:45.371Z,3.27
2018-01-22T16:37:48.851Z,2.77
2018-01-22T16:39:52.225Z,2.83
2018-01-22T16:41:57.533Z,2.60
2018-01-22T16:44:00.966Z,2.73
2018-01-22T16:46:04.926Z,3.00
2018-01-22T16:48:08.343Z,2.83
2018-01-22T16:50:12.463Z,2.73
2018-01-22T16:52:16.052Z,2.50
2018-01-22T16:54:19.562Z,2.60
2018-01-22T16:56:23.018Z,2.47
2018-01-22T16:58:26.378Z,2.53
2018-01-22T17:00:29.776Z,2.40
2018-01-22T17:02:34.037Z,2.80
2018-01-22T17:04:37.499Z,2.53
2018-01-22T17:06:40.876Z,2.80
2018-01-22T17:08:45.013Z,2.60
2018-01-22T17:10:48.672Z,2.97
2018-01-22T17:12:52.847Z,2.57
2018-01-22T17:14:56.223Z,2.80
2018-01-22T17:16:59.583Z,2.40
2018-01-22T17:19:03.726Z,2.30
2018-01-22T17:21:07.083Z,2.60
2018-01-22T17:23:10.476Z,2.63
2018-01-22T17:25:13.922Z,2.50
2018-01-22T17:27:17.338Z,2.80
2018-01-22T17:29:20.844Z,2.77
2018-01-22T17:31:24.284Z,2.80
2018-01-22T17:33:27.652Z,3.07
2018-01-22T17:35:31.071Z,3.13
2018-01-22T17:37:34.502Z,2.50
2018-01-22T17:39:37.938Z,2.53
2018-01-22T17:41:41.694Z,2.70
2018-01-22T17:43:45.148Z,2.60
2018-01-22T17:45:49.259Z,2.87
2018-01-22T17:47:53.515Z,2.63
2018-01-22T17:49:57.024Z,2.73
2018-01-22T17:52:01.818Z,2.60
2018-01-22T17:54:05.489Z,2.97
2018-01-22T17:56:11.127Z,2.93
2018-01-22T17:58:15.556Z,2.73
2018-01-22T18:00:19.935Z,2.40
2018-01-22T18:02:25.313Z,2.83
2018-01-22T18:04:28.897Z,2.90
2018-01-22T18:06:32.290Z,2.33
2018-01-22T18:08:35.680Z,2.93
2018-01-22T18:10:39.215Z,2.67
2018-01-22T18:12:43.029Z,2.80
2018-01-22T18:14:46.628Z,2.50
2018-01-22T18:16:50.679Z,2.33
2018-01-22T18:18:54.156Z,2.60
2018-01-22T18:20:57.527Z,2.67
2018-01-22T18:23:01.493Z,2.30
2018-01-22T18:25:04.663Z,2.60
2018-01-22T18:27:08.014Z,2.90
2018-01-22T18:29:12.247Z,2.67
2018-01-22T18:31:15.844Z,2.77
2018-01-22T18:33:19.991Z,2.60
2018-01-22T18:35:23.683Z,2.20
2018-01-22T18:37:27.191Z,3.00
2018-01-22T18:39:30.550Z,2.67
2018-01-22T18:41:34.019Z,2.50
2018-01-22T18:43:38.159Z,2.63
2018-01-22T18:45:41.627Z,2.63
2018-01-22T18:47:44.978Z,2.80
2018-01-22T18:49:48.375Z,2.60
2018-01-22T18:51:51.755Z,2.67
2018-01-22T18:53:55.253Z,2.50
2018-01-22T18:55:59.684Z,2.60
2018-01-22T18:58:03.612Z,3.10
2018-01-22T19:00:07.020Z,2.73
2018-01-22T19:02:11.443Z,2.60
2018-01-22T19:04:15.929Z,2.50
2018-01-22T19:06:19.333Z,2.57
2018-01-22T19:08:22.891Z,2.90
2018-01-22T19:10:27.104Z,3.03
2018-01-22T19:12:31.292Z,2.80
2018-01-22T19:14:35.373Z,2.77
2018-01-22T19:16:38.830Z,2.60
2018-01-22T19:18:42.199Z,2.50
2018-01-22T19:20:45.594Z,2.60
2018-01-22T19:22:48.949Z,2.53
2018-01-22T19:24:52.330Z,2.30
2018-01-22T19:26:56.608Z,2.30
2018-01-22T19:29:00.164Z,2.80
2018-01-22T19:31:04.155Z,2.80
2018-01-22T19:33:08.656Z,2.80
2018-01-22T19:35:13.027Z,2.70
2018-01-22T19:37:18.739Z,2.57
2018-01-22T19:39:22.868Z,2.70
2018-01-22T19:41:28.013Z,2.97
2018-01-22T19:43:32.984Z,2.83
2018-01-22T19:45:37.543Z,2.53
2018-01-22T19:47:41.015Z,2.97
2018-01-22T19:49:46.076Z,2.53
2018-01-22T19:51:49.508Z,2.60
2018-01-22T19:53:52.860Z,2.87
2018-01-22T19:55:56.465Z,2.90
2018-01-22T19:58:00.628Z,3.00
2018-01-22T20:00:04.106Z,2.60
2018-01-22T20:02:07.459Z,2.40
2018-01-22T20:04:10.813Z,2.13
2018-01-22T20:06:14.158Z,2.67
2018-01-22T20:08:17.549Z,2.70
2018-01-22T20:10:20.924Z,2.70
2018-01-22T20:12:24.410Z,2.67
2018-01-22T20:14:27.882Z,2.30
2018-01-22T20:16:32.089Z,2.60
2018-01-22T20:18:36.242Z,2.50
2018-01-22T20:20:39.633Z,2.90
2018-01-22T20:22:43.025Z,2.30
2018-01-22T20:24:46.404Z,2.57
2018-01-22T20:26:49.767Z,2.33
2018-01-22T20:28:54.015Z,2.77
2018-01-22T20:30:57.399Z,2.50
2018-01-22T20:33:00.389Z,2.37
2018-01-22T20:35:03.753Z,2.20
2018-01-22T20:37:07.140Z,2.30
2018-01-22T20:39:11.288Z,2.77
2018-01-22T20:41:14.678Z,2.30
2018-01-22T20:43:18.048Z,2.30
2018-01-22T20:45:22.204Z,2.53
2018-01-22T20:47:25.645Z,2.50
2018-01-22T20:49:29.801Z,2.40
2018-01-22T20:51:33.173Z,2.47
2018-01-22T20:53:36.554Z,2.20
2018-01-22T20:55:40.172Z,2.47
2018-01-22T20:57:43.665Z,2.30
2018-01-22T20:59:47.233Z,2.60
2018-01-22T21:01:51.510Z,2.50
2018-01-22T21:03:54.869Z,2.43
2018-01-22T21:05:58.268Z,2.23
2018-01-22T21:08:02.061Z,2.43
2018-01-22T21:10:06.490Z,2.40
2018-01-22T21:12:09.862Z,2.13
2018-01-22T21:14:13.264Z,2.60
2018-01-22T21:16:16.647Z,2.23
2018-01-22T21:18:20.015Z,2.57
2018-01-22T21:20:23.783Z,2.50
2018-01-22T21:22:27.147Z,2.03
2018-01-22T21:24:30.568Z,2.20
2018-01-22T21:26:33.957Z,2.00
2018-01-22T21:28:37.325Z,2.40
2018-01-22T21:30:40.723Z,2.80
2018-01-22T21:32:44.174Z,2.67
2018-01-22T21:34:47.642Z,2.50
2018-01-22T21:36:51.025Z,2.30
2018-01-22T21:38:54.404Z,2.13
2018-01-22T21:40:57.811Z,2.57
2018-01-22T21:43:01.185Z,2.83
2018-01-22T21:45:04.650Z,2.53
2018-01-22T21:47:08.044Z,2.57
2018-01-22T21:49:11.414Z,2.37
2018-01-22T21:51:14.797Z,2.47
2018-01-22T21:53:18.947Z,2.57
2018-01-22T21:55:22.341Z,2.60
2018-01-22T21:57:25.737Z,2.47
2018-01-22T21:59:29.297Z,2.10
2018-01-22T22:01:32.726Z,2.50
2018-01-22T22:03:36.098Z,2.20
2018-01-22T22:05:39.462Z,2.60
2018-01-22T22:07:43.644Z,2.40
2018-01-22T22:09:47.022Z,2.83
2018-01-22T22:11:50.418Z,1.90
2018-01-22T22:13:53.793Z,2.20
2018-01-22T22:15:57.157Z,2.60
2018-01-22T22:18:00.570Z,2.33
2018-01-22T22:20:03.930Z,2.20
2018-01-22T22:22:07.319Z,2.43
2018-01-22T22:24:11.447Z,2.70
2018-01-22T22:26:14.816Z,2.30
2018-01-22T22:28:18.994Z,2.20
2018-01-22T22:30:22.352Z,2.53
2018-01-22T22:32:25.714Z,2.23
2018-01-22T22:34:29.072Z,2.60
2018-01-22T22:36:32.451Z,2.30
2018-01-22T22:38:35.929Z,2.80
2018-01-22T22:40:39.300Z,2.33
2018-01-22T22:42:42.686Z,2.40
2018-01-22T22:44:47.081Z,2.73
2018-01-22T22:46:50.576Z,2.07
2018-01-22T22:48:53.976Z,2.37
2018-01-22T22:50:58.101Z,2.33
2018-01-22T22:53:01.452Z,2.50
2018-01-22T22:55:06.147Z,2.37
2018-01-22T22:57:09.623Z,2.13
2018-01-22T22:59:13.621Z,2.63
2018-01-22T23:01:16.993Z,2.90
2018-01-22T23:03:20.353Z,2.60
2018-01-22T23:05:23.730Z,3.03
2018-01-22T23:07:27.521Z,2.27
2018-01-22T23:09:30.976Z,2.30
2018-01-22T23:11:35.108Z,3.10
2018-01-22T23:13:39.000Z,2.17
2018-01-22T23:15:44.685Z,2.43
2018-01-22T23:17:49.439Z,2.57
2018-01-22T23:19:53.101Z,2.80
2018-01-22T23:21:56.632Z,2.73
2018-01-22T23:24:00.036Z,2.30
2018-01-22T23:26:03.388Z,2.63
2018-01-22T23:28:06.773Z,2.50
2018-01-22T23:30:10.242Z,2.47
2018-01-22T23:32:13.599Z,2.73
2018-01-22T23:34:16.962Z,2.60
2018-01-22T23:36:20.351Z,2.70
2018-01-22T23:38:23.709Z,2.70
2018-01-22T23:40:27.093Z,2.60
2018-01-22T23:42:31.276Z,2.30
2018-01-22T23:44:34.778Z,2.60
2018-01-22T23:46:38.521Z,2.80
2018-01-22T23:48:41.895Z,2.83
2018-01-22T23:50:46.061Z,2.87
2018-01-22T23:52:50.095Z,2.60
2018-01-22T23:54:53.509Z,2.53
2018-01-22T23:56:56.984Z,2.23
2018-01-22T23:59:01.337Z,2.53
